sensor_id;sensor_type;location;lat;lon;timestamp;temperature;humidity
59893;DHT22;45758;51.052;3.740;2022-10-14T00:00:35;15.80;99.90
59893;DHT22;45758;51.052;3.740;2022-10-14T00:03:01;15.80;99.90
59893;DHT22;45758;51.052;3.740;2022-10-14T00:05:27;15.80;99.90
59893;DHT22;45758;51.052;3.740;2022-10-14T00:07:55;15.80;99.90
59893;DHT22;45758;51.052;3.740;2022-10-14T00:10:21;15.90;99.90
59893;DHT22;45758;51.052;3.740;2022-10-14T00:12:47;15.80;99.90
59893;DHT22;45758;51.052;3.740;2022-10-14T00:15:23;15.80;99.90
59893;DHT22;45758;51.052;3.740;2022-10-14T00:17:48;15.80;99.90
59893;DHT22;45758;51.052;3.740;2022-10-14T00:20:15;15.80;99.90
59893;DHT22;45758;51.052;3.740;2022-10-14T00:22:40;15.90;99.90
59893;DHT22;45758;51.052;3.740;2022-10-14T00:25:06;15.90;99.90
59893;DHT22;45758;51.052;3.740;2022-10-14T00:27:32;16.00;99.90
59893;DHT22;45758;51.052;3.740;2022-10-14T00:29:58;15.90;99.90
59893;DHT22;45758;51.052;3.740;2022-10-14T00:32:24;15.90;99.90
59893;DHT22;45758;51.052;3.740;2022-10-14T00:34:54;15.90;99.90
59893;DHT22;45758;51.052;3.740;2022-10-14T00:37:20;15.90;99.90
59893;DHT22;45758;51.052;3.740;2022-10-14T00:39:46;15.90;99.90
59893;DHT22;45758;51.052;3.740;2022-10-14T00:42:13;16.00;99.90
59893;DHT22;45758;51.052;3.740;2022-10-14T00:47:08;16.00;99.90
59893;DHT22;45758;51.052;3.740;2022-10-14T00:49:40;15.90;99.90
59893;DHT22;45758;51.052;3.740;2022-10-14T00:52:12;15.80;99.90
59893;DHT22;45758;51.052;3.740;2022-10-14T00:54:42;15.80;99.90
59893;DHT22;45758;51.052;3.740;2022-10-14T00:57:09;15.90;99.90
59893;DHT22;45758;51.052;3.740;2022-10-14T00:59:35;16.00;99.90
59893;DHT22;45758;51.052;3.740;2022-10-14T01:02:04;15.90;99.90
59893;DHT22;45758;51.052;3.740;2022-10-14T01:04:30;16.00;99.90
59893;DHT22;45758;51.052;3.740;2022-10-14T01:13:10;15.90;99.90
59893;DHT22;45758;51.052;3.740;2022-10-14T01:16:12;15.90;99.90
59893;DHT22;45758;51.052;3.740;2022-10-14T01:18:57;15.90;99.90
59893;DHT22;45758;51.052;3.740;2022-10-14T01:21:50;15.80;99.90
59893;DHT22;45758;51.052;3.740;2022-10-14T01:24:41;15.90;99.90
59893;DHT22;45758;51.052;3.740;2022-10-14T01:30:28;15.90;99.90
59893;DHT22;45758;51.052;3.740;2022-10-14T01:33:15;15.90;99.90
59893;DHT22;45758;51.052;3.740;2022-10-14T01:38:42;15.90;99.90
59893;DHT22;45758;51.052;3.740;2022-10-14T01:41:22;15.80;99.90
59893;DHT22;45758;51.052;3.740;2022-10-14T01:43:51;15.80;99.90
59893;DHT22;45758;51.052;3.740;2022-10-14T01:46:21;15.90;99.90
59893;DHT22;45758;51.052;3.740;2022-10-14T01:48:53;16.00;99.90
59893;DHT22;45758;51.052;3.740;2022-10-14T01:51:25;16.10;99.90
59893;DHT22;45758;51.052;3.740;2022-10-14T01:53:56;16.00;99.90
59893;DHT22;45758;51.052;3.740;2022-10-14T01:56:26;16.00;99.90
59893;DHT22;45758;51.052;3.740;2022-10-14T01:58:52;16.00;99.90
59893;DHT22;45758;51.052;3.740;2022-10-14T02:01:18;16.00;99.90
59893;DHT22;45758;51.052;3.740;2022-10-14T02:03:46;16.00;99.90
59893;DHT22;45758;51.052;3.740;2022-10-14T02:06:46;16.00;99.90
59893;DHT22;45758;51.052;3.740;2022-10-14T02:11:58;16.00;99.90
59893;DHT22;45758;51.052;3.740;2022-10-14T02:17:52;15.90;99.90
59893;DHT22;45758;51.052;3.740;2022-10-14T02:20:31;15.90;99.90
59893;DHT22;45758;51.052;3.740;2022-10-14T02:23:07;16.00;99.90
59893;DHT22;45758;51.052;3.740;2022-10-14T02:25:38;16.00;99.90
59893;DHT22;45758;51.052;3.740;2022-10-14T02:28:06;16.00;99.90
59893;DHT22;45758;51.052;3.740;2022-10-14T02:30:38;15.90;99.90
59893;DHT22;45758;51.052;3.740;2022-10-14T02:33:05;15.90;99.90
59893;DHT22;45758;51.052;3.740;2022-10-14T02:35:33;15.80;99.90
59893;DHT22;45758;51.052;3.740;2022-10-14T02:38:00;15.90;99.90
59893;DHT22;45758;51.052;3.740;2022-10-14T02:40:32;15.90;99.90
59893;DHT22;45758;51.052;3.740;2022-10-14T02:43:00;15.90;99.90
59893;DHT22;45758;51.052;3.740;2022-10-14T02:45:26;15.90;99.90
59893;DHT22;45758;51.052;3.740;2022-10-14T02:47:53;15.90;99.90
59893;DHT22;45758;51.052;3.740;2022-10-14T02:50:21;16.00;99.90
59893;DHT22;45758;51.052;3.740;2022-10-14T02:52:47;15.90;99.90
59893;DHT22;45758;51.052;3.740;2022-10-14T02:55:12;15.90;99.90
59893;DHT22;45758;51.052;3.740;2022-10-14T02:57:38;15.80;99.90
59893;DHT22;45758;51.052;3.740;2022-10-14T03:00:05;15.90;99.90
59893;DHT22;45758;51.052;3.740;2022-10-14T03:02:31;15.90;99.90
59893;DHT22;45758;51.052;3.740;2022-10-14T03:04:57;15.80;99.90
59893;DHT22;45758;51.052;3.740;2022-10-14T03:07:24;15.80;99.90
59893;DHT22;45758;51.052;3.740;2022-10-14T03:09:49;15.80;99.90
59893;DHT22;45758;51.052;3.740;2022-10-14T03:12:15;15.90;99.90
59893;DHT22;45758;51.052;3.740;2022-10-14T03:14:41;15.90;99.90
59893;DHT22;45758;51.052;3.740;2022-10-14T03:17:07;15.80;99.90
59893;DHT22;45758;51.052;3.740;2022-10-14T03:19:33;15.70;99.90
59893;DHT22;45758;51.052;3.740;2022-10-14T03:22:00;15.80;99.90
59893;DHT22;45758;51.052;3.740;2022-10-14T03:24:25;15.90;99.90
59893;DHT22;45758;51.052;3.740;2022-10-14T03:26:51;16.00;99.90
59893;DHT22;45758;51.052;3.740;2022-10-14T03:29:18;15.90;99.90
59893;DHT22;45758;51.052;3.740;2022-10-14T03:31:44;15.90;99.90
59893;DHT22;45758;51.052;3.740;2022-10-14T03:34:10;15.90;99.90
59893;DHT22;45758;51.052;3.740;2022-10-14T03:36:36;15.90;99.90
59893;DHT22;45758;51.052;3.740;2022-10-14T03:39:02;16.00;99.90
59893;DHT22;45758;51.052;3.740;2022-10-14T03:41:27;15.90;99.90
59893;DHT22;45758;51.052;3.740;2022-10-14T03:43:53;15.80;99.90
59893;DHT22;45758;51.052;3.740;2022-10-14T03:46:19;15.90;99.90
59893;DHT22;45758;51.052;3.740;2022-10-14T03:48:48;15.90;99.90
59893;DHT22;45758;51.052;3.740;2022-10-14T03:51:14;15.90;99.90
59893;DHT22;45758;51.052;3.740;2022-10-14T03:53:40;15.90;99.90
59893;DHT22;45758;51.052;3.740;2022-10-14T03:56:09;15.90;99.90
59893;DHT22;45758;51.052;3.740;2022-10-14T03:58:35;15.90;99.90
59893;DHT22;45758;51.052;3.740;2022-10-14T04:01:01;15.90;99.90
59893;DHT22;45758;51.052;3.740;2022-10-14T04:03:27;15.80;99.90
59893;DHT22;45758;51.052;3.740;2022-10-14T04:05:56;15.90;99.90
59893;DHT22;45758;51.052;3.740;2022-10-14T04:08:22;15.90;99.90
59893;DHT22;45758;51.052;3.740;2022-10-14T04:10:53;15.90;99.90
59893;DHT22;45758;51.052;3.740;2022-10-14T04:13:22;16.00;99.90
59893;DHT22;45758;51.052;3.740;2022-10-14T04:15:48;15.90;99.90
59893;DHT22;45758;51.052;3.740;2022-10-14T04:18:13;16.00;99.90
59893;DHT22;45758;51.052;3.740;2022-10-14T04:20:40;16.00;99.90
59893;DHT22;45758;51.052;3.740;2022-10-14T04:23:06;16.00;99.90
59893;DHT22;45758;51.052;3.740;2022-10-14T04:25:32;15.90;99.90
59893;DHT22;45758;51.052;3.740;2022-10-14T04:27:58;16.00;99.90
59893;DHT22;45758;51.052;3.740;2022-10-14T04:30:27;15.90;99.90
59893;DHT22;45758;51.052;3.740;2022-10-14T04:32:53;15.80;99.90
59893;DHT22;45758;51.052;3.740;2022-10-14T04:35:19;15.90;99.90
59893;DHT22;45758;51.052;3.740;2022-10-14T04:37:45;16.00;99.90
59893;DHT22;45758;51.052;3.740;2022-10-14T04:40:11;16.00;99.90
59893;DHT22;45758;51.052;3.740;2022-10-14T04:42:37;16.00;99.90
59893;DHT22;45758;51.052;3.740;2022-10-14T04:45:05;15.90;99.90
59893;DHT22;45758;51.052;3.740;2022-10-14T04:47:31;15.80;99.90
59893;DHT22;45758;51.052;3.740;2022-10-14T04:49:57;15.80;99.90
59893;DHT22;45758;51.052;3.740;2022-10-14T04:52:30;15.90;99.90
59893;DHT22;45758;51.052;3.740;2022-10-14T04:54:56;15.80;99.90
59893;DHT22;45758;51.052;3.740;2022-10-14T04:57:22;15.80;99.90
59893;DHT22;45758;51.052;3.740;2022-10-14T04:59:50;15.80;99.90
59893;DHT22;45758;51.052;3.740;2022-10-14T05:02:16;15.90;99.90
59893;DHT22;45758;51.052;3.740;2022-10-14T05:04:42;15.80;99.90
59893;DHT22;45758;51.052;3.740;2022-10-14T05:07:08;16.00;99.90
59893;DHT22;45758;51.052;3.740;2022-10-14T05:09:33;15.90;99.90
59893;DHT22;45758;51.052;3.740;2022-10-14T05:12:03;15.90;99.90
59893;DHT22;45758;51.052;3.740;2022-10-14T05:14:29;15.90;99.90
59893;DHT22;45758;51.052;3.740;2022-10-14T05:16:57;15.90;99.90
59893;DHT22;45758;51.052;3.740;2022-10-14T05:19:23;15.80;99.90
59893;DHT22;45758;51.052;3.740;2022-10-14T05:21:49;15.80;99.90
59893;DHT22;45758;51.052;3.740;2022-10-14T05:24:15;15.80;99.90
59893;DHT22;45758;51.052;3.740;2022-10-14T05:26:41;15.90;99.90
59893;DHT22;45758;51.052;3.740;2022-10-14T05:29:09;15.80;99.90
59893;DHT22;45758;51.052;3.740;2022-10-14T05:31:35;15.80;99.90
59893;DHT22;45758;51.052;3.740;2022-10-14T05:34:01;15.80;99.90
59893;DHT22;45758;51.052;3.740;2022-10-14T05:36:27;15.80;99.90
59893;DHT22;45758;51.052;3.740;2022-10-14T05:38:58;15.80;99.90
59893;DHT22;45758;51.052;3.740;2022-10-14T05:41:24;15.70;99.90
59893;DHT22;45758;51.052;3.740;2022-10-14T05:43:50;15.80;99.90
59893;DHT22;45758;51.052;3.740;2022-10-14T05:46:16;15.80;99.90
59893;DHT22;45758;51.052;3.740;2022-10-14T05:48:42;15.90;99.90
59893;DHT22;45758;51.052;3.740;2022-10-14T05:51:08;15.80;99.90
59893;DHT22;45758;51.052;3.740;2022-10-14T05:53:34;15.80;99.90
59893;DHT22;45758;51.052;3.740;2022-10-14T05:56:04;15.90;99.90
59893;DHT22;45758;51.052;3.740;2022-10-14T05:58:30;15.90;99.90
59893;DHT22;45758;51.052;3.740;2022-10-14T06:01:01;15.90;99.90
59893;DHT22;45758;51.052;3.740;2022-10-14T06:03:29;15.90;99.90
59893;DHT22;45758;51.052;3.740;2022-10-14T06:05:55;15.90;99.90
59893;DHT22;45758;51.052;3.740;2022-10-14T06:08:22;15.80;99.90
59893;DHT22;45758;51.052;3.740;2022-10-14T06:10:48;15.90;99.90
59893;DHT22;45758;51.052;3.740;2022-10-14T06:13:14;15.90;99.90
59893;DHT22;45758;51.052;3.740;2022-10-14T06:15:40;15.90;99.90
59893;DHT22;45758;51.052;3.740;2022-10-14T06:18:06;15.80;99.90
59893;DHT22;45758;51.052;3.740;2022-10-14T06:20:32;15.80;99.90
59893;DHT22;45758;51.052;3.740;2022-10-14T06:22:58;15.80;99.90
59893;DHT22;45758;51.052;3.740;2022-10-14T06:25:25;15.80;99.90
59893;DHT22;45758;51.052;3.740;2022-10-14T06:27:52;15.80;99.90
59893;DHT22;45758;51.052;3.740;2022-10-14T06:30:18;15.90;99.90
59893;DHT22;45758;51.052;3.740;2022-10-14T06:32:44;15.80;99.90
59893;DHT22;45758;51.052;3.740;2022-10-14T06:35:10;15.80;99.90
59893;DHT22;45758;51.052;3.740;2022-10-14T06:37:36;15.70;99.90
59893;DHT22;45758;51.052;3.740;2022-10-14T06:40:03;15.70;99.90
59893;DHT22;45758;51.052;3.740;2022-10-14T06:42:30;15.70;99.90
59893;DHT22;45758;51.052;3.740;2022-10-14T06:44:59;15.70;99.90
59893;DHT22;45758;51.052;3.740;2022-10-14T06:47:25;15.70;99.90
59893;DHT22;45758;51.052;3.740;2022-10-14T06:49:51;15.70;99.90
59893;DHT22;45758;51.052;3.740;2022-10-14T06:52:17;15.70;99.90
59893;DHT22;45758;51.052;3.740;2022-10-14T06:54:43;15.70;99.90
59893;DHT22;45758;51.052;3.740;2022-10-14T06:57:09;15.70;99.90
59893;DHT22;45758;51.052;3.740;2022-10-14T06:59:35;15.60;99.90
59893;DHT22;45758;51.052;3.740;2022-10-14T07:02:02;15.70;99.90
59893;DHT22;45758;51.052;3.740;2022-10-14T07:04:28;15.80;99.90
59893;DHT22;45758;51.052;3.740;2022-10-14T07:06:54;15.90;99.90
59893;DHT22;45758;51.052;3.740;2022-10-14T07:09:22;15.90;99.90
59893;DHT22;45758;51.052;3.740;2022-10-14T07:11:47;15.90;99.90
59893;DHT22;45758;51.052;3.740;2022-10-14T07:14:13;15.90;99.90
59893;DHT22;45758;51.052;3.740;2022-10-14T07:16:42;15.90;99.90
59893;DHT22;45758;51.052;3.740;2022-10-14T07:19:08;16.00;99.90
59893;DHT22;45758;51.052;3.740;2022-10-14T07:21:34;16.00;99.90
59893;DHT22;45758;51.052;3.740;2022-10-14T07:24:00;16.10;99.90
59893;DHT22;45758;51.052;3.740;2022-10-14T07:26:28;16.00;99.90
59893;DHT22;45758;51.052;3.740;2022-10-14T07:28:56;15.90;99.90
59893;DHT22;45758;51.052;3.740;2022-10-14T07:31:22;16.00;99.90
59893;DHT22;45758;51.052;3.740;2022-10-14T07:33:48;16.10;99.90
59893;DHT22;45758;51.052;3.740;2022-10-14T07:36:15;16.10;99.90
59893;DHT22;45758;51.052;3.740;2022-10-14T07:38:42;16.10;99.90
59893;DHT22;45758;51.052;3.740;2022-10-14T07:41:11;16.00;99.90
59893;DHT22;45758;51.052;3.740;2022-10-14T07:43:46;16.00;99.90
59893;DHT22;45758;51.052;3.740;2022-10-14T07:46:14;16.20;99.90
59893;DHT22;45758;51.052;3.740;2022-10-14T07:48:41;16.10;99.90
59893;DHT22;45758;51.052;3.740;2022-10-14T07:51:07;16.10;99.90
59893;DHT22;45758;51.052;3.740;2022-10-14T07:53:34;16.20;99.90
59893;DHT22;45758;51.052;3.740;2022-10-14T07:56:01;16.20;99.90
59893;DHT22;45758;51.052;3.740;2022-10-14T07:58:29;16.20;99.90
59893;DHT22;45758;51.052;3.740;2022-10-14T08:00:56;16.20;99.90
59893;DHT22;45758;51.052;3.740;2022-10-14T08:03:23;16.20;99.90
59893;DHT22;45758;51.052;3.740;2022-10-14T08:05:49;16.20;99.90
59893;DHT22;45758;51.052;3.740;2022-10-14T08:08:16;16.10;99.90
59893;DHT22;45758;51.052;3.740;2022-10-14T08:10:43;16.10;99.90
59893;DHT22;45758;51.052;3.740;2022-10-14T08:13:09;16.20;99.90
59893;DHT22;45758;51.052;3.740;2022-10-14T08:15:37;16.20;99.90
59893;DHT22;45758;51.052;3.740;2022-10-14T08:18:06;16.30;99.90
59893;DHT22;45758;51.052;3.740;2022-10-14T08:20:33;16.30;99.90
59893;DHT22;45758;51.052;3.740;2022-10-14T08:23:00;16.20;99.90
59893;DHT22;45758;51.052;3.740;2022-10-14T08:25:26;16.30;99.90
59893;DHT22;45758;51.052;3.740;2022-10-14T08:27:53;16.30;99.90
59893;DHT22;45758;51.052;3.740;2022-10-14T08:30:19;16.40;99.90
59893;DHT22;45758;51.052;3.740;2022-10-14T08:32:45;16.40;99.90
59893;DHT22;45758;51.052;3.740;2022-10-14T08:35:11;16.40;99.90
59893;DHT22;45758;51.052;3.740;2022-10-14T08:37:37;16.40;99.90
59893;DHT22;45758;51.052;3.740;2022-10-14T08:40:04;16.40;99.90
59893;DHT22;45758;51.052;3.740;2022-10-14T08:45:19;16.40;99.90
59893;DHT22;45758;51.052;3.740;2022-10-14T08:47:46;16.30;99.90
59893;DHT22;45758;51.052;3.740;2022-10-14T08:53:31;16.40;99.90
59893;DHT22;45758;51.052;3.740;2022-10-14T08:55:52;16.40;99.90
59893;DHT22;45758;51.052;3.740;2022-10-14T09:03:44;16.80;99.90
59893;DHT22;45758;51.052;3.740;2022-10-14T09:06:19;16.70;99.90
59893;DHT22;45758;51.052;3.740;2022-10-14T09:08:48;16.70;99.90
59893;DHT22;45758;51.052;3.740;2022-10-14T09:11:20;16.70;99.90
59893;DHT22;45758;51.052;3.740;2022-10-14T09:13:49;16.70;99.90
59893;DHT22;45758;51.052;3.740;2022-10-14T09:16:28;16.60;99.90
59893;DHT22;45758;51.052;3.740;2022-10-14T09:19:00;16.60;99.90
59893;DHT22;45758;51.052;3.740;2022-10-14T09:21:45;16.70;99.90
59893;DHT22;45758;51.052;3.740;2022-10-14T09:24:17;16.70;99.90
59893;DHT22;45758;51.052;3.740;2022-10-14T09:27:07;16.70;99.90
59893;DHT22;45758;51.052;3.740;2022-10-14T09:29:45;16.70;99.90
59893;DHT22;45758;51.052;3.740;2022-10-14T09:32:15;16.80;99.90
59893;DHT22;45758;51.052;3.740;2022-10-14T09:34:45;16.90;99.90
59893;DHT22;45758;51.052;3.740;2022-10-14T09:37:25;17.00;99.90
59893;DHT22;45758;51.052;3.740;2022-10-14T09:39:55;17.10;99.90
59893;DHT22;45758;51.052;3.740;2022-10-14T09:42:56;17.20;99.90
59893;DHT22;45758;51.052;3.740;2022-10-14T09:45:23;17.30;99.90
59893;DHT22;45758;51.052;3.740;2022-10-14T09:47:58;17.40;99.90
59893;DHT22;45758;51.052;3.740;2022-10-14T09:50:39;17.40;99.90
59893;DHT22;45758;51.052;3.740;2022-10-14T09:55:57;17.40;99.90
59893;DHT22;45758;51.052;3.740;2022-10-14T10:01:01;17.40;99.90
59893;DHT22;45758;51.052;3.740;2022-10-14T10:03:34;17.40;99.90
59893;DHT22;45758;51.052;3.740;2022-10-14T10:06:11;17.50;99.90
59893;DHT22;45758;51.052;3.740;2022-10-14T10:11:30;17.80;99.90
59893;DHT22;45758;51.052;3.740;2022-10-14T10:13:58;18.00;99.90
59893;DHT22;45758;51.052;3.740;2022-10-14T10:16:39;18.10;99.90
59893;DHT22;45758;51.052;3.740;2022-10-14T10:19:31;18.10;99.90
59893;DHT22;45758;51.052;3.740;2022-10-14T10:27:36;17.90;99.90
59893;DHT22;45758;51.052;3.740;2022-10-14T10:33:04;18.10;99.90
59893;DHT22;45758;51.052;3.740;2022-10-14T10:35:54;18.20;99.90
59893;DHT22;45758;51.052;3.740;2022-10-14T10:41:45;18.40;99.90
59893;DHT22;45758;51.052;3.740;2022-10-14T10:44:45;18.40;99.90
59893;DHT22;45758;51.052;3.740;2022-10-14T10:47:34;18.50;99.90
59893;DHT22;45758;51.052;3.740;2022-10-14T10:50:24;18.60;99.90
59893;DHT22;45758;51.052;3.740;2022-10-14T10:53:12;18.80;99.90
59893;DHT22;45758;51.052;3.740;2022-10-14T11:04:36;20.00;99.90
59893;DHT22;45758;51.052;3.740;2022-10-14T11:15:11;20.90;99.90
59893;DHT22;45758;51.052;3.740;2022-10-14T11:17:59;21.00;99.90
59893;DHT22;45758;51.052;3.740;2022-10-14T11:23:29;21.10;99.90
59893;DHT22;45758;51.052;3.740;2022-10-14T11:28:52;20.90;99.90
59893;DHT22;45758;51.052;3.740;2022-10-14T11:31:31;20.90;99.90
59893;DHT22;45758;51.052;3.740;2022-10-14T11:45:33;21.30;99.90
59893;DHT22;45758;51.052;3.740;2022-10-14T11:50:53;21.40;99.90
59893;DHT22;45758;51.052;3.740;2022-10-14T11:53:26;21.30;99.90
59893;DHT22;45758;51.052;3.740;2022-10-14T11:56:10;21.40;99.90
59893;DHT22;45758;51.052;3.740;2022-10-14T11:58:41;21.50;99.90
59893;DHT22;45758;51.052;3.740;2022-10-14T12:01:11;21.60;99.90
59893;DHT22;45758;51.052;3.740;2022-10-14T12:04:02;21.80;99.90
59893;DHT22;45758;51.052;3.740;2022-10-14T12:06:44;21.80;99.90
59893;DHT22;45758;51.052;3.740;2022-10-14T12:09:37;21.70;99.90
59893;DHT22;45758;51.052;3.740;2022-10-14T12:12:08;21.80;99.90
59893;DHT22;45758;51.052;3.740;2022-10-14T12:14:45;21.60;99.90
59893;DHT22;45758;51.052;3.740;2022-10-14T12:19:49;21.40;99.90
59893;DHT22;45758;51.052;3.740;2022-10-14T12:22:25;21.30;99.90
59893;DHT22;45758;51.052;3.740;2022-10-14T12:25:13;21.20;99.90
59893;DHT22;45758;51.052;3.740;2022-10-14T12:27:41;21.30;99.90
59893;DHT22;45758;51.052;3.740;2022-10-14T12:30:37;21.40;99.90
59893;DHT22;45758;51.052;3.740;2022-10-14T12:35:52;21.20;99.90
59893;DHT22;45758;51.052;3.740;2022-10-14T12:38:20;21.20;99.90
59893;DHT22;45758;51.052;3.740;2022-10-14T12:40:46;21.00;99.90
59893;DHT22;45758;51.052;3.740;2022-10-14T12:43:24;21.00;99.90
59893;DHT22;45758;51.052;3.740;2022-10-14T12:46:07;21.00;99.90
59893;DHT22;45758;51.052;3.740;2022-10-14T12:48:36;21.00;99.90
59893;DHT22;45758;51.052;3.740;2022-10-14T12:51:07;20.80;99.90
59893;DHT22;45758;51.052;3.740;2022-10-14T12:53:36;20.70;99.90
59893;DHT22;45758;51.052;3.740;2022-10-14T12:56:04;20.80;99.90
59893;DHT22;45758;51.052;3.740;2022-10-14T13:01:24;20.70;99.90
59893;DHT22;45758;51.052;3.740;2022-10-14T13:04:02;20.70;99.90
59893;DHT22;45758;51.052;3.740;2022-10-14T13:06:34;20.80;99.90
59893;DHT22;45758;51.052;3.740;2022-10-14T13:11:41;20.90;99.90
59893;DHT22;45758;51.052;3.740;2022-10-14T13:16:53;21.00;99.90
59893;DHT22;45758;51.052;3.740;2022-10-14T13:22:33;21.00;99.90
59893;DHT22;45758;51.052;3.740;2022-10-14T13:25:15;21.00;99.90
59893;DHT22;45758;51.052;3.740;2022-10-14T13:32:53;20.60;99.90
59893;DHT22;45758;51.052;3.740;2022-10-14T13:38:18;20.60;99.90
59893;DHT22;45758;51.052;3.740;2022-10-14T13:40:48;20.50;99.90
59893;DHT22;45758;51.052;3.740;2022-10-14T13:46:38;20.40;99.90
59893;DHT22;45758;51.052;3.740;2022-10-14T13:49:11;20.40;99.90
59893;DHT22;45758;51.052;3.740;2022-10-14T13:54:45;20.30;99.90
59893;DHT22;45758;51.052;3.740;2022-10-14T13:57:16;20.40;99.90
59893;DHT22;45758;51.052;3.740;2022-10-14T13:59:44;20.30;99.90
59893;DHT22;45758;51.052;3.740;2022-10-14T14:02:18;20.30;99.90
59893;DHT22;45758;51.052;3.740;2022-10-14T14:04:50;20.20;99.90
59893;DHT22;45758;51.052;3.740;2022-10-14T14:07:20;20.20;99.90
59893;DHT22;45758;51.052;3.740;2022-10-14T14:09:49;20.20;99.90
59893;DHT22;45758;51.052;3.740;2022-10-14T14:12:22;20.10;99.90
59893;DHT22;45758;51.052;3.740;2022-10-14T14:14:49;20.10;99.90
59893;DHT22;45758;51.052;3.740;2022-10-14T14:17:23;20.10;99.90
59893;DHT22;45758;51.052;3.740;2022-10-14T14:19:53;20.10;99.90
59893;DHT22;45758;51.052;3.740;2022-10-14T14:22:24;20.10;99.90
59893;DHT22;45758;51.052;3.740;2022-10-14T14:28:00;19.80;99.90
59893;DHT22;45758;51.052;3.740;2022-10-14T14:30:31;19.80;99.90
59893;DHT22;45758;51.052;3.740;2022-10-14T14:33:01;20.00;99.90
59893;DHT22;45758;51.052;3.740;2022-10-14T14:35:28;20.00;99.90
59893;DHT22;45758;51.052;3.740;2022-10-14T14:37:56;19.80;99.90
59893;DHT22;45758;51.052;3.740;2022-10-14T14:40:31;19.70;99.90
59893;DHT22;45758;51.052;3.740;2022-10-14T14:43:01;19.60;99.90
59893;DHT22;45758;51.052;3.740;2022-10-14T14:45:30;19.50;99.90
59893;DHT22;45758;51.052;3.740;2022-10-14T14:48:00;19.50;99.90
59893;DHT22;45758;51.052;3.740;2022-10-14T14:50:32;19.60;99.90
59893;DHT22;45758;51.052;3.740;2022-10-14T14:53:11;19.60;99.90
59893;DHT22;45758;51.052;3.740;2022-10-14T15:00:55;19.40;99.90
59893;DHT22;45758;51.052;3.740;2022-10-14T15:03:25;19.50;99.90
59893;DHT22;45758;51.052;3.740;2022-10-14T15:06:01;19.50;99.90
59893;DHT22;45758;51.052;3.740;2022-10-14T15:08:33;19.40;99.90
59893;DHT22;45758;51.052;3.740;2022-10-14T15:11:08;19.50;99.90
59893;DHT22;45758;51.052;3.740;2022-10-14T15:16:05;19.40;99.90
59893;DHT22;45758;51.052;3.740;2022-10-14T15:18:32;19.30;99.90
59893;DHT22;45758;51.052;3.740;2022-10-14T15:21:12;19.30;99.90
59893;DHT22;45758;51.052;3.740;2022-10-14T15:29:14;19.10;99.90
59893;DHT22;45758;51.052;3.740;2022-10-14T15:31:47;19.00;99.90
59893;DHT22;45758;51.052;3.740;2022-10-14T15:34:27;18.90;99.90
59893;DHT22;45758;51.052;3.740;2022-10-14T15:36:54;18.90;99.90
59893;DHT22;45758;51.052;3.740;2022-10-14T15:39:23;18.90;99.90
59893;DHT22;45758;51.052;3.740;2022-10-14T15:41:52;18.80;99.90
59893;DHT22;45758;51.052;3.740;2022-10-14T15:44:18;18.70;99.90
59893;DHT22;45758;51.052;3.740;2022-10-14T15:46:45;18.70;99.90
59893;DHT22;45758;51.052;3.740;2022-10-14T15:49:35;18.60;99.90
59893;DHT22;45758;51.052;3.740;2022-10-14T15:52:01;18.60;99.90
59893;DHT22;45758;51.052;3.740;2022-10-14T15:54:27;18.50;99.90
59893;DHT22;45758;51.052;3.740;2022-10-14T15:56:56;18.30;99.90
59893;DHT22;45758;51.052;3.740;2022-10-14T15:59:22;18.20;99.90
59893;DHT22;45758;51.052;3.740;2022-10-14T16:01:49;18.10;99.90
59893;DHT22;45758;51.052;3.740;2022-10-14T16:04:21;18.10;99.90
59893;DHT22;45758;51.052;3.740;2022-10-14T16:06:52;18.00;99.90
59893;DHT22;45758;51.052;3.740;2022-10-14T16:09:24;17.90;99.90
59893;DHT22;45758;51.052;3.740;2022-10-14T16:11:52;17.90;99.90
59893;DHT22;45758;51.052;3.740;2022-10-14T16:14:25;17.90;99.90
59893;DHT22;45758;51.052;3.740;2022-10-14T16:16:54;17.80;99.90
59893;DHT22;45758;51.052;3.740;2022-10-14T16:19:20;17.80;99.90
59893;DHT22;45758;51.052;3.740;2022-10-14T16:21:46;17.70;99.90
59893;DHT22;45758;51.052;3.740;2022-10-14T16:24:17;17.70;99.90
59893;DHT22;45758;51.052;3.740;2022-10-14T16:26:45;17.70;99.90
59893;DHT22;45758;51.052;3.740;2022-10-14T16:29:13;17.60;99.90
59893;DHT22;45758;51.052;3.740;2022-10-14T16:31:49;17.50;99.90
59893;DHT22;45758;51.052;3.740;2022-10-14T16:34:16;17.50;99.90
59893;DHT22;45758;51.052;3.740;2022-10-14T16:36:42;17.40;99.90
59893;DHT22;45758;51.052;3.740;2022-10-14T16:39:11;17.30;99.90
59893;DHT22;45758;51.052;3.740;2022-10-14T16:41:37;17.30;99.90
59893;DHT22;45758;51.052;3.740;2022-10-14T16:44:04;17.30;99.90
59893;DHT22;45758;51.052;3.740;2022-10-14T16:46:30;17.30;99.90
59893;DHT22;45758;51.052;3.740;2022-10-14T16:49:15;17.30;99.90
59893;DHT22;45758;51.052;3.740;2022-10-14T16:51:43;17.20;99.90
59893;DHT22;45758;51.052;3.740;2022-10-14T16:54:10;17.10;99.90
59893;DHT22;45758;51.052;3.740;2022-10-14T16:56:36;17.10;99.90
59893;DHT22;45758;51.052;3.740;2022-10-14T16:59:18;17.00;99.90
59893;DHT22;45758;51.052;3.740;2022-10-14T17:01:44;16.80;99.90
59893;DHT22;45758;51.052;3.740;2022-10-14T17:04:11;16.80;99.90
59893;DHT22;45758;51.052;3.740;2022-10-14T17:06:38;16.90;99.90
59893;DHT22;45758;51.052;3.740;2022-10-14T17:09:10;16.80;99.90
59893;DHT22;45758;51.052;3.740;2022-10-14T17:11:36;16.80;99.90
59893;DHT22;45758;51.052;3.740;2022-10-14T17:14:05;16.70;99.90
59893;DHT22;45758;51.052;3.740;2022-10-14T17:16:34;16.80;99.90
59893;DHT22;45758;51.052;3.740;2022-10-14T17:19:00;16.80;99.90
59893;DHT22;45758;51.052;3.740;2022-10-14T17:21:29;16.70;99.90
59893;DHT22;45758;51.052;3.740;2022-10-14T17:24:20;16.70;99.90
59893;DHT22;45758;51.052;3.740;2022-10-14T17:26:47;16.60;99.90
59893;DHT22;45758;51.052;3.740;2022-10-14T17:29:15;16.50;99.90
59893;DHT22;45758;51.052;3.740;2022-10-14T17:31:50;16.40;99.90
59893;DHT22;45758;51.052;3.740;2022-10-14T17:34:16;16.20;99.90
59893;DHT22;45758;51.052;3.740;2022-10-14T17:36:42;16.20;99.90
59893;DHT22;45758;51.052;3.740;2022-10-14T17:39:09;16.20;99.90
59893;DHT22;45758;51.052;3.740;2022-10-14T17:41:39;16.20;99.90
59893;DHT22;45758;51.052;3.740;2022-10-14T17:44:08;16.10;99.90
59893;DHT22;45758;51.052;3.740;2022-10-14T17:46:34;16.10;99.90
59893;DHT22;45758;51.052;3.740;2022-10-14T17:49:03;16.00;99.90
59893;DHT22;45758;51.052;3.740;2022-10-14T17:51:30;16.00;99.90
59893;DHT22;45758;51.052;3.740;2022-10-14T17:53:58;16.00;99.90
59893;DHT22;45758;51.052;3.740;2022-10-14T17:56:27;16.00;99.90
59893;DHT22;45758;51.052;3.740;2022-10-14T17:58:54;15.90;99.90
59893;DHT22;45758;51.052;3.740;2022-10-14T18:01:20;15.90;99.90
59893;DHT22;45758;51.052;3.740;2022-10-14T18:03:47;15.90;99.90